Angela, Montana
Current Conditions -  °F | °C
As of 1:53 AM on Thursday 23 Oct 2014 (Local Time) from KMLS Reporting Station
Clear Clear  
Wind Chill: 30°   Ceiling: Unl
Heat Index: 37°   Visibility: 10mi
Dew Point: 27°   Wind: 9mph
Humidity: 67%   Direction: 150°SSE
Pressure: 29.92"   Gusts: NA
Location:  46.73°N, 106.2°W
Report Text: KMLS 230753Z AUTO 15008KT 10SM CLR 03/M03 A2992 RMK AO2 SLP133 T00281028
Loading
Personal Weather Stations






























Interactive Weather Map
Tropical Storm Tracking
New forecast layout! Learn more

10-Day Weather Forecast

Advertisements
Track Severe Weather on mobile